Time;durP1;ratioP1;P1;durP2;ratioP2;P2;SDS_P1;SDS_P2;PMS_P1;PMS_P2;Temp;Humidity;BMP_temperature;BMP_pressure;BME280_temperature;BME280_humidity;BME280_pressure;Samples;Min_cycle;Max_cycle;Signal;HPM_P1;HPM_P2
2023/01/25 00:01:24;;;;;;;13.55;8.43;;;;;;;2.15;78.47;100389.19;5072819;28;20111;-78
2023/01/25 00:03:49;;;;;;;14.25;8.02;;;;;;;2.13;77.90;100388.53;5072831;28;20040;-78
2023/01/25 00:06:14;;;;;;;14.60;8.05;;;;;;;2.14;77.46;100395.63;5072556;28;20047;-78
2023/01/25 00:08:40;;;;;;;14.25;8.40;;;;;;;2.14;77.68;100392.94;5050571;28;20048;-78
2023/01/25 00:11:05;;;;;;;12.70;7.47;;;;;;;2.10;77.80;100386.22;5052778;28;20083;-78
2023/01/25 00:13:30;;;;;;;13.15;8.00;;;;;;;2.08;78.31;100389.97;5052789;28;20055;-77
2023/01/25 00:16:03;;;;;;;12.55;7.65;;;;;;;2.05;78.18;100395.75;5052763;28;20063;-79
2023/01/25 00:18:29;;;;;;;14.68;8.40;;;;;;;2.03;77.86;100395.09;5052546;28;20047;-78
2023/01/25 00:20:54;;;;;;;17.63;9.27;;;;;;;2.02;78.04;100388.00;5052564;28;20491;-78
2023/01/25 00:23:20;;;;;;;16.38;9.00;;;;;;;2.03;78.19;100388.88;5052878;28;20033;-78
2023/01/25 00:25:45;;;;;;;17.88;9.57;;;;;;;2.04;77.40;100385.09;5052131;28;20031;-78
2023/01/25 00:28:11;;;;;;;15.02;8.27;;;;;;;2.00;77.48;100384.66;5052549;28;20098;-78
2023/01/25 00:30:36;;;;;;;16.13;9.20;;;;;;;2.00;77.73;100375.72;5052511;28;20024;-78
2023/01/25 00:33:25;;;;;;;13.07;8.43;;;;;;;1.98;78.07;100375.91;5052420;28;20461;-77
2023/01/25 00:35:55;;;;;;;14.27;8.80;;;;;;;1.95;77.98;100375.47;5052028;28;20095;-79
2023/01/25 00:38:27;;;;;;;;;;;;;;;1.92;77.97;100374.81;5052316;28;20032;-78
2023/01/25 00:40:53;;;;;;;14.57;8.68;;;;;;;1.88;77.50;100380.78;5052323;28;20382;-78
2023/01/25 00:43:19;;;;;;;14.55;8.40;;;;;;;1.87;78.36;100373.69;5052229;28;20065;-78
2023/01/25 00:45:45;;;;;;;11.52;7.35;;;;;;;1.89;78.39;100385.16;5051489;28;20033;-78
2023/01/25 00:48:10;;;;;;;10.60;6.82;;;;;;;1.89;77.64;100386.00;5051819;28;20032;-78
2023/01/25 00:50:36;;;;;;;12.77;7.28;;;;;;;1.87;77.91;100376.41;5052361;28;20454;-78
2023/01/25 00:53:02;;;;;;;10.85;6.30;;;;;;;1.89;78.55;100395.97;5052364;28;20553;-79
2023/01/25 00:55:27;;;;;;;11.85;7.05;;;;;;;1.89;78.54;100387.88;5050811;28;20111;-78
2023/01/25 00:57:52;;;;;;;10.63;6.60;;;;;;;1.90;78.57;100389.53;5051502;28;20021;-78
2023/01/25 01:00:18;;;;;;;11.27;6.63;;;;;;;1.88;78.26;100378.06;5051686;28;20082;-78
2023/01/25 01:02:43;;;;;;;13.25;7.60;;;;;;;1.90;78.53;100382.28;5051741;28;20063;-78
2023/01/25 01:05:09;;;;;;;11.57;6.97;;;;;;;1.90;78.30;100382.28;5051599;28;20470;-78
2023/01/25 01:07:34;;;;;;;10.43;6.53;;;;;;;1.92;78.09;100379.38;5051406;28;20109;-78
2023/01/25 01:09:59;;;;;;;11.27;6.32;;;;;;;1.94;77.83;100377.31;5066475;28;20049;-78
2023/01/25 01:12:26;;;;;;;10.75;6.80;;;;;;;1.95;78.50;100376.28;5070637;28;20028;-78
2023/01/25 01:14:51;;;;;;;14.00;7.32;;;;;;;1.95;78.24;100372.75;5071282;28;20036;-78
2023/01/25 01:17:16;;;;;;;12.07;7.18;;;;;;;1.95;78.40;100375.47;5070857;28;20033;-77
2023/01/25 01:19:42;;;;;;;11.50;6.70;;;;;;;1.92;77.74;100366.69;5071913;28;20113;-78
2023/01/25 01:22:07;;;;;;;9.30;5.80;;;;;;;1.92;78.66;100360.44;5071504;28;20032;-77
2023/01/25 01:24:32;;;;;;;9.52;6.40;;;;;;;1.91;77.79;100353.34;5053488;28;20039;-77
2023/01/25 01:26:58;;;;;;;10.43;6.75;;;;;;;1.92;78.23;100344.19;5070755;28;21481;-77
2023/01/25 01:29:23;;;;;;;9.90;6.10;;;;;;;1.91;77.74;100347.94;5071590;28;20032;-78
2023/01/25 01:31:51;;;;;;;9.55;6.68;;;;;;;1.92;77.92;100330.66;5071143;28;20421;-78
2023/01/25 01:34:17;;;;;;;9.98;6.15;;;;;;;1.95;78.26;100332.16;5071451;28;20028;-78
2023/01/25 01:36:43;;;;;;;11.00;6.47;;;;;;;1.97;77.72;100332.81;5070306;28;20024;-78
2023/01/25 01:39:09;;;;;;;10.20;6.90;;;;;;;2.00;78.19;100319.72;5071347;28;20039;-79
2023/01/25 01:41:35;;;;;;;10.93;7.13;;;;;;;2.00;78.44;100327.81;5071155;28;20032;-78
2023/01/25 01:44:00;;;;;;;13.70;7.63;;;;;;;1.98;77.65;100315.53;5070870;28;20034;-78
2023/01/25 01:46:34;;;;;;;14.43;7.13;;;;;;;1.95;78.03;100324.03;5070546;28;20066;-78
2023/01/25 01:49:15;;;;;;;11.80;7.43;;;;;;;1.93;78.24;100325.06;5071017;28;20032;-78
2023/01/25 01:51:51;;;;;;;10.80;6.15;;;;;;;1.91;78.10;100328.97;5070922;28;20024;-78
2023/01/25 01:54:42;;;;;;;11.57;6.97;;;;;;;1.91;77.83;100319.00;5070793;28;20020;-78
2023/01/25 01:57:15;;;;;;;9.68;6.47;;;;;;;1.91;78.29;100315.44;5059054;28;20044;-78
2023/01/25 01:59:43;;;;;;;8.60;4.97;;;;;;;1.85;78.07;100316.22;5070641;28;20024;-78
2023/01/25 02:02:08;;;;;;;8.38;5.35;;;;;;;1.80;78.09;100313.28;5070690;28;20501;-78
2023/01/25 02:04:34;;;;;;;9.02;5.15;;;;;;;1.76;78.26;100305.56;5070148;28;20060;-77
2023/01/25 02:07:04;;;;;;;9.27;5.13;;;;;;;1.76;78.05;100316.38;5070150;28;20032;-77
2023/01/25 02:09:32;;;;;;;9.20;5.38;;;;;;;1.76;77.53;100310.97;5070350;28;20143;-78
2023/01/25 02:11:59;;;;;;;8.60;5.57;;;;;;;1.73;78.25;100294.25;5070150;28;20024;-77
2023/01/25 02:14:27;;;;;;;7.35;5.20;;;;;;;1.70;77.67;100292.78;5070263;28;20164;-78
2023/01/25 02:16:52;;;;;;;7.30;4.80;;;;;;;1.70;78.17;100291.94;5068805;28;20051;-78
2023/01/25 02:19:36;;;;;;;7.45;5.00;;;;;;;1.69;78.27;100290.25;5070225;28;20490;-77
2023/01/25 02:22:09;;;;;;;7.70;4.65;;;;;;;1.69;77.81;100299.22;5068458;28;20028;-77
2023/01/25 02:24:38;;;;;;;8.07;4.95;;;;;;;1.68;78.51;100296.69;5069856;28;20033;-77
2023/01/25 02:27:03;;;;;;;6.50;4.50;;;;;;;1.65;77.65;100292.53;5070043;28;20101;-78
2023/01/25 02:29:29;;;;;;;7.72;4.93;;;;;;;1.66;77.68;100287.94;5070085;28;20497;-77
2023/01/25 02:31:59;;;;;;;6.55;4.38;;;;;;;1.67;77.64;100289.63;5069952;28;20081;-77
2023/01/25 02:34:24;;;;;;;8.02;4.78;;;;;;;1.72;77.86;100292.59;5066551;28;20020;-78
2023/01/25 02:36:50;;;;;;;6.47;4.35;;;;;;;1.73;78.05;100295.13;5068596;28;20462;-78
2023/01/25 02:39:17;;;;;;;7.78;4.95;;;;;;;1.75;77.88;100298.47;5068887;28;20024;-78
2023/01/25 02:41:46;;;;;;;6.95;4.97;;;;;;;1.77;77.60;100292.84;5069068;28;20025;-78
2023/01/25 02:44:15;;;;;;;8.35;5.72;;;;;;;1.78;77.72;100295.38;5070388;28;20051;-78
2023/01/25 02:46:43;;;;;;;6.82;5.18;;;;;;;1.82;77.94;100293.09;5068897;28;20021;-78
2023/01/25 02:49:09;;;;;;;7.05;4.57;;;;;;;1.81;77.96;100288.72;5069806;28;20020;-79
2023/01/25 02:51:39;;;;;;;7.15;4.63;;;;;;;1.82;77.59;100295.00;5069752;28;20032;-79
2023/01/25 02:54:05;;;;;;;;;;;;;;;1.80;78.41;100286.22;5070622;28;20489;-79
2023/01/25 02:56:31;;;;;;;7.05;4.70;;;;;;;1.79;77.78;100290.78;5069500;28;19970;-77
2023/01/25 02:58:57;;;;;;;8.25;4.63;;;;;;;1.80;78.41;100287.06;5069084;28;20039;-78
2023/01/25 03:01:23;;;;;;;6.63;4.53;;;;;;;1.83;78.35;100288.56;5069660;28;20032;-79
2023/01/25 03:03:48;;;;;;;8.18;5.45;;;;;;;1.83;78.15;100283.97;5068507;28;20035;-79
2023/01/25 03:06:13;;;;;;;8.13;5.05;;;;;;;1.82;77.46;100284.16;5068470;28;20504;-78
2023/01/25 03:08:39;;;;;;;7.53;4.70;;;;;;;1.82;77.49;100281.47;5068670;28;20099;-79
2023/01/25 03:11:05;;;;;;;6.50;4.88;;;;;;;1.84;78.24;100287.50;5069149;28;20021;-78
2023/01/25 03:13:32;;;;;;;6.57;4.15;;;;;;;1.82;77.90;100284.16;5069105;28;20048;-79
2023/01/25 03:16:01;;;;;;;6.15;4.50;;;;;;;1.77;77.44;100280.16;5069310;28;20032;-78
2023/01/25 03:18:26;;;;;;;5.63;4.05;;;;;;;1.76;77.48;100274.94;5068470;28;20038;-78
2023/01/25 03:20:51;;;;;;;7.65;4.40;;;;;;;1.74;77.45;100277.84;5069093;28;20467;-79
2023/01/25 03:23:17;;;;;;;7.15;4.90;;;;;;;1.71;77.58;100278.22;5069627;28;20034;-79
2023/01/25 03:25:42;;;;;;;7.30;5.22;;;;;;;1.70;77.34;100273.84;5069459;28;20478;-78
2023/01/25 03:28:07;;;;;;;5.78;4.30;;;;;;;1.70;78.00;100271.16;5069203;28;20111;-79
2023/01/25 03:30:33;;;;;;;6.82;4.22;;;;;;;1.70;78.12;100271.16;5069429;28;20536;-78
2023/01/25 03:32:59;;;;;;;6.97;4.15;;;;;;;1.69;77.67;100283.00;5069484;28;20021;-78
2023/01/25 03:35:24;;;;;;;6.03;4.60;;;;;;;1.71;78.25;100275.53;5051327;28;20027;-78
2023/01/25 03:37:50;;;;;;;6.43;4.45;;;;;;;1.72;78.28;100273.66;5068938;28;20063;-78
2023/01/25 03:40:15;;;;;;;6.60;4.40;;;;;;;1.74;77.44;100280.56;5069162;28;20486;-79
2023/01/25 03:42:40;;;;;;;6.43;4.00;;;;;;;1.71;77.49;100275.53;5069413;28;20086;-79
2023/01/25 03:45:06;;;;;;;5.60;4.03;;;;;;;1.72;78.30;100268.22;5068769;28;20114;-78
2023/01/25 03:47:31;;;;;;;5.68;4.57;;;;;;;1.75;78.12;100278.66;5067147;28;20494;-78
2023/01/25 03:49:57;;;;;;;5.38;4.20;;;;;;;1.77;77.48;100276.63;5069312;28;20039;-78
2023/01/25 03:52:39;;;;;;;6.47;4.40;;;;;;;1.78;77.56;100273.72;5051261;28;20030;-78
2023/01/25 03:55:05;;;;;;;5.43;4.28;;;;;;;1.82;77.59;100286.88;5069111;28;20125;-78
2023/01/25 03:57:30;;;;;;;6.60;4.20;;;;;;;1.83;77.33;100275.03;5068718;28;20365;-78
2023/01/25 03:59:56;;;;;;;8.35;4.00;;;;;;;1.81;77.82;100271.66;5068958;28;20112;-78
2023/01/25 04:02:21;;;;;;;5.30;3.85;;;;;;;1.80;77.34;100262.69;5069210;28;20024;-77
2023/01/25 04:04:46;;;;;;;5.57;3.92;;;;;;;1.79;78.17;100266.44;5068667;28;20028;-78
2023/01/25 04:07:12;;;;;;;5.78;4.00;;;;;;;1.79;77.84;100261.03;5050619;28;20115;-78
2023/01/25 04:09:37;;;;;;;5.65;4.22;;;;;;;1.78;78.02;100256.66;5068871;28;20097;-78
2023/01/25 04:12:03;;;;;;;5.85;4.13;;;;;;;1.77;77.40;100253.13;5069165;28;20449;-78
2023/01/25 04:14:30;;;;;;;7.15;4.32;;;;;;;1.77;77.49;100250.41;5068984;28;20086;-78
2023/01/25 04:16:55;;;;;;;6.40;3.90;;;;;;;1.80;77.99;100253.75;5069257;28;20033;-78
2023/01/25 04:19:20;;;;;;;6.05;4.00;;;;;;;1.81;77.75;100258.97;5068652;28;20363;-78
2023/01/25 04:21:46;;;;;;;6.45;4.43;;;;;;;1.81;77.32;100250.84;5051018;28;20107;-77
2023/01/25 04:24:11;;;;;;;6.63;4.15;;;;;;;1.82;77.27;100249.81;5051173;28;20390;-78
2023/01/25 04:26:36;;;;;;;5.93;4.22;;;;;;;1.83;77.59;100256.09;5068782;28;20123;-78
2023/01/25 04:29:02;;;;;;;5.18;4.13;;;;;;;1.84;77.39;100249.59;5050496;28;20028;-78
2023/01/25 04:31:27;;;;;;;8.20;4.20;;;;;;;1.86;77.79;100247.53;5072798;28;20032;-78
2023/01/25 04:33:54;;;;;;;5.43;3.80;;;;;;;1.84;77.91;100244.19;5072542;28;20485;-79
2023/01/25 04:36:19;;;;;;;5.47;3.50;;;;;;;1.84;77.44;100245.06;5071999;28;20622;-79
2023/01/25 04:38:45;;;;;;;5.63;3.85;;;;;;;1.83;77.47;100239.84;5071727;28;20060;-79
2023/01/25 04:41:10;;;;;;;7.03;4.13;;;;;;;1.81;78.00;100231.91;5072260;28;20056;-78
2023/01/25 04:43:35;;;;;;;5.85;4.10;;;;;;;1.77;77.83;100230.63;5072471;28;20024;-78
2023/01/25 04:46:01;;;;;;;6.05;4.10;;;;;;;1.77;77.25;100228.78;5071966;28;20028;-78
2023/01/25 04:48:27;;;;;;;7.40;4.35;;;;;;;1.77;78.24;100228.78;5071831;28;20104;-78
2023/01/25 04:50:52;;;;;;;7.07;4.50;;;;;;;1.77;77.27;100228.78;5071512;28;20036;-78
2023/01/25 04:53:17;;;;;;;7.07;4.28;;;;;;;1.77;77.25;100228.78;5071710;28;20033;-78
2023/01/25 04:55:46;;;;;;;6.63;4.32;;;;;;;1.76;77.97;100229.81;5071581;28;20024;-78
2023/01/25 04:58:12;;;;;;;9.70;6.20;;;;;;;1.75;77.32;100224.56;5071689;28;20549;-78
2023/01/25 05:00:37;;;;;;;7.72;4.93;;;;;;;1.74;77.40;100223.75;5053907;28;20621;-78
2023/01/25 05:03:03;;;;;;;7.30;4.47;;;;;;;1.74;77.44;100231.00;5071601;28;20024;-78
2023/01/25 05:05:28;;;;;;;6.47;3.83;;;;;;;1.75;77.39;100230.84;5070785;28;20394;-78
2023/01/25 05:07:54;;;;;;;7.10;3.92;;;;;;;1.78;77.58;100224.19;5071645;28;20489;-77
2023/01/25 05:10:19;;;;;;;7.25;4.15;;;;;;;1.83;78.09;100224.44;5071084;28;20051;-78
2023/01/25 05:12:45;;;;;;;6.57;4.10;;;;;;;1.86;77.98;100223.19;5071720;28;20020;-78
2023/01/25 05:15:10;;;;;;;6.50;4.22;;;;;;;1.90;77.69;100221.78;5071537;28;20100;-78
2023/01/25 05:17:35;;;;;;;7.03;4.03;;;;;;;1.93;77.27;100222.25;5071169;28;20482;-77
2023/01/25 05:20:01;;;;;;;7.50;4.45;;;;;;;1.97;77.58;100214.56;5071365;28;20028;-78
2023/01/25 05:22:27;;;;;;;6.95;4.05;;;;;;;2.00;78.03;100207.94;5071228;28;20025;-78
2023/01/25 05:24:52;;;;;;;6.32;4.30;;;;;;;2.03;78.12;100212.94;5070596;28;20032;-78
2023/01/25 05:27:19;;;;;;;5.47;3.90;;;;;;;2.05;78.11;100210.84;5070993;28;20040;-77
2023/01/25 05:29:45;;;;;;;6.63;3.85;;;;;;;2.07;78.04;100214.19;5071302;28;20032;-78
2023/01/25 05:32:16;;;;;;;6.28;4.30;;;;;;;2.10;77.85;100202.16;5071097;28;20119;-78
2023/01/25 05:34:42;;;;;;;7.70;4.63;;;;;;;2.12;77.66;100203.63;5069603;28;20017;-78
2023/01/25 05:37:09;;;;;;;6.20;4.43;;;;;;;2.15;77.96;100203.22;5070680;28;20081;-78
2023/01/25 05:39:35;;;;;;;7.47;4.82;;;;;;;2.18;77.34;100204.72;5070713;28;20028;-78
2023/01/25 05:42:00;;;;;;;7.53;5.13;;;;;;;2.20;77.95;100202.66;5070519;28;20545;-79
2023/01/25 05:44:27;;;;;;;10.43;6.32;;;;;;;2.22;77.56;100198.69;5070927;28;20017;-78
2023/01/25 05:46:53;;;;;;;32.08;13.60;;;;;;;2.24;77.11;100195.81;5070441;28;20036;-79
2023/01/25 05:49:19;;;;;;;28.30;12.55;;;;;;;2.26;77.66;100192.91;5052704;28;20016;-77
2023/01/25 05:51:45;;;;;;;26.48;12.13;;;;;;;2.27;77.18;100192.69;5070580;28;20031;-78
2023/01/25 05:54:13;;;;;;;30.38;13.82;;;;;;;2.30;76.88;100191.47;5052718;28;20021;-77
2023/01/25 05:56:40;;;;;;;29.63;12.88;;;;;;;2.32;77.25;100194.81;5070388;28;20033;-77
2023/01/25 05:59:05;;;;;;;16.88;9.15;;;;;;;2.32;77.13;100198.34;5070127;28;20016;-77
2023/01/25 06:01:31;;;;;;;10.05;5.80;;;;;;;2.31;77.02;100193.13;5070470;28;20482;-76
2023/01/25 06:03:56;;;;;;;10.63;5.65;;;;;;;2.30;77.42;100194.16;5070531;28;20102;-76
2023/01/25 06:06:22;;;;;;;9.02;5.18;;;;;;;2.30;76.74;100189.56;5070309;28;20103;-76
2023/01/25 06:08:49;;;;;;;9.40;5.68;;;;;;;2.31;77.42;100196.66;5069434;28;20056;-76
2023/01/25 06:11:20;;;;;;;10.18;5.53;;;;;;;2.30;76.80;100195.00;5069303;28;20653;-76
2023/01/25 06:13:46;;;;;;;8.20;5.55;;;;;;;2.31;77.50;100191.25;5069821;28;20024;-75
2023/01/25 06:16:12;;;;;;;25.83;10.30;;;;;;;2.33;77.29;100193.78;5069790;28;20070;-76
2023/01/25 06:18:37;;;;;;;21.30;9.73;;;;;;;2.32;77.61;100190.22;5069784;28;20502;-76
2023/01/25 06:21:03;;;;;;;18.08;8.35;;;;;;;2.33;76.90;100191.06;5070064;28;20044;-76
2023/01/25 06:23:29;;;;;;;16.27;7.95;;;;;;;2.33;77.14;100189.19;5070105;28;20016;-76
2023/01/25 06:26:00;;;;;;;15.57;8.93;;;;;;;2.34;76.45;100190.84;5069659;28;20024;-76
2023/01/25 06:28:25;;;;;;;37.53;17.60;;;;;;;2.36;76.82;100194.19;5069572;28;20059;-76
2023/01/25 06:30:51;;;;;;;52.03;20.15;;;;;;;2.38;77.01;100192.13;5069784;28;20053;-75
2023/01/25 06:33:16;;;;;;;31.40;14.07;;;;;;;2.37;76.78;100187.75;5070054;28;20035;-76
2023/01/25 06:35:42;;;;;;;53.20;22.88;;;;;;;2.39;76.91;100187.56;5069893;28;20031;-75
2023/01/25 06:38:08;;;;;;;39.67;17.85;;;;;;;2.38;77.32;100189.44;5069905;28;20025;-75
2023/01/25 06:40:33;;;;;;;45.00;19.88;;;;;;;2.41;76.56;100195.47;5070269;28;20111;-76
2023/01/25 06:43:07;;;;;;;42.72;20.38;;;;;;;2.41;76.59;100195.47;5070065;28;20151;-76
2023/01/25 06:45:32;;;;;;;40.25;18.40;;;;;;;2.42;77.14;100192.59;5048841;28;20046;-75
2023/01/25 06:47:57;;;;;;;32.40;15.85;;;;;;;2.41;77.08;100185.50;5069681;28;20825;-76
2023/01/25 06:50:23;;;;;;;26.17;12.68;;;;;;;2.41;76.85;100179.22;5069743;28;20114;-76
2023/01/25 06:52:55;;;;;;;18.30;10.50;;;;;;;2.41;76.92;100181.94;5068855;28;20098;-76
2023/01/25 06:55:21;;;;;;;16.88;9.52;;;;;;;2.41;77.03;100185.50;5069435;28;20032;-76
2023/01/25 06:57:47;;;;;;;12.48;7.78;;;;;;;2.42;76.50;100180.91;5069164;28;20066;-76
2023/01/25 07:00:14;;;;;;;11.75;7.60;;;;;;;2.42;77.14;100183.63;5069595;28;20039;-75
2023/01/25 07:02:39;;;;;;;12.50;7.22;;;;;;;2.40;76.27;100173.00;5069755;28;20029;-75
2023/01/25 07:05:05;;;;;;;11.02;6.78;;;;;;;2.41;76.93;100184.66;5069264;28;20058;-76
2023/01/25 07:07:31;;;;;;;9.98;6.65;;;;;;;2.42;77.09;100167.34;5069388;28;20036;-76
2023/01/25 07:09:57;;;;;;;11.20;6.90;;;;;;;2.43;76.75;100169.03;5069035;28;20053;-76
2023/01/25 07:12:24;;;;;;;12.88;8.70;;;;;;;2.44;76.96;100173.41;5069286;28;20020;-76
2023/01/25 07:14:50;;;;;;;12.55;8.60;;;;;;;2.44;76.86;100173.41;5067239;28;20444;-76
2023/01/25 07:17:15;;;;;;;10.55;7.30;;;;;;;2.44;77.17;100168.84;5068936;28;20082;-75
2023/01/25 07:19:40;;;;;;;10.75;6.60;;;;;;;2.46;76.22;100168.63;5065058;28;20021;-77
2023/01/25 07:22:06;;;;;;;12.40;7.30;;;;;;;2.48;76.98;100161.16;5067819;28;20063;-76
2023/01/25 07:24:31;;;;;;;10.85;7.30;;;;;;;2.49;77.03;100154.69;5069577;28;20135;-76
2023/01/25 07:26:57;;;;;;;12.93;7.57;;;;;;;2.48;76.16;100153.03;5064859;28;20046;-74
2023/01/25 07:29:23;;;;;;;14.90;8.70;;;;;;;2.49;76.67;100155.50;5068003;28;20029;-74
2023/01/25 07:31:48;;;;;;;14.27;8.85;;;;;;;2.49;76.47;100152.00;5066895;28;20450;-73
2023/01/25 07:34:13;;;;;;;15.95;8.57;;;;;;;2.49;76.98;100143.88;5066861;28;20033;-76
2023/01/25 07:36:39;;;;;;;15.27;8.90;;;;;;;2.52;76.55;100146.16;5067010;28;20238;-76
2023/01/25 07:39:08;;;;;;;18.15;9.50;;;;;;;2.53;76.42;100145.13;5067671;28;20060;-76
2023/01/25 07:41:33;;;;;;;16.02;8.68;;;;;;;2.55;77.10;100153.03;5067455;28;20534;-75
2023/01/25 07:43:59;;;;;;;17.40;9.18;;;;;;;2.55;76.91;100151.19;5064030;28;20099;-73
2023/01/25 07:46:24;;;;;;;17.67;9.23;;;;;;;2.55;76.33;100147.63;5065574;28;20032;-74
2023/01/25 07:48:51;;;;;;;18.67;8.82;;;;;;;2.58;76.73;100152.63;5064379;28;20103;-75
2023/01/25 07:51:21;;;;;;;17.15;9.27;;;;;;;2.59;76.71;100144.34;5065630;28;20024;-74
2023/01/25 07:53:54;;;;;;;16.08;9.57;;;;;;;2.59;76.10;100144.34;5063089;28;20471;-74
2023/01/25 07:56:22;;;;;;;17.02;9.95;;;;;;;2.59;76.48;100149.75;5067274;28;20112;-73
2023/01/25 07:58:47;;;;;;;18.70;10.27;;;;;;;2.59;76.85;100144.34;5066511;28;20037;-75
2023/01/25 08:01:16;;;;;;;17.17;9.55;;;;;;;2.59;76.83;100132.66;5067142;28;20507;-74
2023/01/25 08:03:42;;;;;;;19.90;11.38;;;;;;;2.60;76.12;100134.31;5067101;28;20023;-73
2023/01/25 08:06:09;;;;;;;22.20;11.90;;;;;;;2.62;76.43;100134.94;5074151;28;20494;-73
2023/01/25 08:08:37;;;;;;;24.70;14.35;;;;;;;2.62;76.46;100126.81;5053167;28;20098;-75
2023/01/25 08:11:09;;;;;;;29.58;18.15;;;;;;;2.64;76.61;100128.31;5072116;28;20801;-74
2023/01/25 08:13:35;;;;;;;33.35;17.83;;;;;;;2.66;76.08;100128.09;5071486;28;20029;-75
2023/01/25 08:16:00;;;;;;;26.75;14.63;;;;;;;2.67;76.08;100135.19;5071858;28;20420;-75
2023/01/25 08:18:25;;;;;;;27.85;14.68;;;;;;;2.67;75.91;100127.88;5070040;28;20051;-75
2023/01/25 08:20:51;;;;;;;48.72;25.80;;;;;;;2.69;76.92;100135.81;5071659;28;20027;-76
2023/01/25 08:23:16;;;;;;;36.65;19.67;;;;;;;2.67;75.99;100137.88;5073553;28;20056;-75
2023/01/25 08:25:42;;;;;;;27.80;15.40;;;;;;;2.68;76.83;100137.66;5069974;28;20044;-75
2023/01/25 08:28:07;;;;;;;48.22;36.65;;;;;;;2.68;76.87;100132.25;5073320;28;20029;-75
2023/01/25 08:30:33;;;;;;;52.45;38.35;;;;;;;2.68;76.67;100129.53;5071026;28;20470;-75
2023/01/25 08:32:58;;;;;;;36.42;23.25;;;;;;;2.71;76.89;100132.88;5071139;28;20702;-75
2023/01/25 08:35:24;;;;;;;26.25;16.38;;;;;;;2.72;76.57;100126.44;5070417;28;20036;-76
2023/01/25 08:37:49;;;;;;;26.02;16.60;;;;;;;2.72;76.48;100126.44;5071465;28;20029;-75
2023/01/25 08:40:15;;;;;;;21.55;13.52;;;;;;;2.72;76.76;100105.59;5070740;28;20119;-76
2023/01/25 08:42:42;;;;;;;19.10;11.57;;;;;;;2.74;76.63;100103.53;5069860;28;20069;-75
2023/01/25 08:45:08;;;;;;;19.70;12.70;;;;;;;2.80;76.47;100099.16;5049305;28;20032;-76
2023/01/25 08:47:33;;;;;;;20.50;13.98;;;;;;;2.83;76.34;100107.72;5070735;28;20036;-77
2023/01/25 08:49:59;;;;;;;26.42;16.20;;;;;;;2.87;76.54;100107.28;5074372;28;20504;-74
2023/01/25 08:52:25;;;;;;;24.58;15.15;;;;;;;2.90;76.62;100104.19;5067278;28;20075;-73
2023/01/25 08:54:50;;;;;;;21.23;11.88;;;;;;;2.91;76.92;100100.44;5070903;28;20020;-73
2023/01/25 08:57:15;;;;;;;34.10;18.00;;;;;;;2.93;76.30;100096.50;5068787;28;20517;-75
2023/01/25 08:59:41;;;;;;;30.65;16.77;;;;;;;2.96;76.85;100108.78;5070699;28;20036;-73
2023/01/25 09:02:10;;;;;;;29.70;15.13;;;;;;;2.91;76.11;100085.03;5066878;28;20099;-75
2023/01/25 09:04:36;;;;;;;33.22;17.30;;;;;;;2.95;76.83;100094.41;5071847;28;20033;-76
2023/01/25 09:07:01;;;;;;;31.95;16.27;;;;;;;2.94;76.74;100092.75;5070981;28;20414;-74
2023/01/25 09:09:28;;;;;;;21.33;11.95;;;;;;;2.96;76.25;100085.25;5070960;28;20121;-75
2023/01/25 09:11:54;;;;;;;21.45;10.20;;;;;;;2.95;76.80;100082.72;5075291;28;20032;-76
2023/01/25 09:14:19;;;;;;;20.50;11.05;;;;;;;2.97;76.25;100091.47;5073693;28;20466;-75
2023/01/25 09:16:45;;;;;;;16.75;8.60;;;;;;;2.94;76.60;100090.03;5071365;28;20031;-75
2023/01/25 09:19:10;;;;;;;16.45;8.63;;;;;;;2.93;76.11;100088.34;5071578;28;20459;-75
2023/01/25 09:21:36;;;;;;;17.10;9.27;;;;;;;2.92;76.48;100088.53;5072280;28;20028;-75
2023/01/25 09:24:01;;;;;;;20.05;9.80;;;;;;;2.89;76.66;100086.25;5070912;28;20538;-75
2023/01/25 09:26:27;;;;;;;15.57;8.80;;;;;;;2.91;75.75;100079.59;5071247;28;20450;-74
2023/01/25 09:28:53;;;;;;;15.10;8.18;;;;;;;2.92;76.38;100083.97;5053622;28;20024;-75
2023/01/25 09:31:20;;;;;;;15.48;9.80;;;;;;;2.92;76.64;100083.13;5071851;28;20478;-75
2023/01/25 09:33:46;;;;;;;16.63;10.55;;;;;;;2.92;75.93;100081.28;5071669;28;20035;-75
2023/01/25 09:36:12;;;;;;;14.20;8.90;;;;;;;2.92;76.23;100072.28;5071454;28;20020;-75
2023/01/25 09:38:37;;;;;;;14.80;8.32;;;;;;;2.94;76.76;100072.91;5071053;28;20470;-75
2023/01/25 09:41:09;;;;;;;15.55;8.77;;;;;;;2.94;76.59;100057.50;5071392;28;20024;-74
2023/01/25 09:43:43;;;;;;;15.32;9.40;;;;;;;2.95;76.52;100061.03;5053483;28;20482;-76
2023/01/25 09:46:34;;;;;;;16.70;10.35;;;;;;;2.94;75.93;100060.22;5053142;28;20040;-74
2023/01/25 09:49:30;;;;;;;19.38;11.57;;;;;;;2.94;76.42;100060.22;5058541;28;20044;-77
2023/01/25 09:52:16;;;;;;;19.98;11.57;;;;;;;2.95;76.43;100055.63;5071436;28;20028;-77
2023/01/25 09:54:45;;;;;;;23.70;13.50;;;;;;;2.96;76.46;100050.00;5070856;28;20028;-77
2023/01/25 09:57:20;;;;;;;20.15;11.98;;;;;;;2.99;76.56;100048.75;5071286;28;20020;-76
2023/01/25 09:59:49;;;;;;;26.92;14.23;;;;;;;3.01;75.93;100041.25;5053221;28;20025;-76
2023/01/25 10:02:39;;;;;;;28.17;15.35;;;;;;;3.03;76.40;100039.16;5071106;28;20028;-76
2023/01/25 10:05:27;;;;;;;27.50;14.23;;;;;;;3.07;76.51;100028.72;5070601;28;20028;-77
2023/01/25 10:08:02;;;;;;;28.38;15.55;;;;;;;3.11;76.30;100022.69;5052308;28;20028;-75
2023/01/25 10:10:36;;;;;;;30.73;15.48;;;;;;;3.13;75.75;100025.19;5070071;28;20045;-74
2023/01/25 10:13:02;;;;;;;27.92;14.88;;;;;;;3.13;76.55;100015.19;5070546;28;20032;-74
2023/01/25 10:15:33;;;;;;;43.70;18.23;;;;;;;3.14;76.07;100010.59;5070519;28;20407;-73
2023/01/25 10:18:13;;;;;;;30.65;14.23;;;;;;;3.17;75.77;100010.16;5070368;28;20024;-74
2023/01/25 10:20:55;;;;;;;36.42;18.55;;;;;;;3.17;76.36;100003.94;5070571;28;20040;-74
2023/01/25 10:24:01;;;;;;;34.63;19.85;;;;;;;3.14;76.49;99994.31;5070206;28;20029;-75
2023/01/25 10:26:28;;;;;;;33.00;18.58;;;;;;;3.18;76.40;100003.69;5051827;28;20028;-74
2023/01/25 10:29:19;;;;;;;40.97;22.27;;;;;;;3.13;75.70;100001.63;5068119;28;20020;-74
2023/01/25 10:31:50;;;;;;;42.92;24.55;;;;;;;3.12;75.92;99993.69;5070838;28;20459;-75
2023/01/25 10:34:21;;;;;;;32.67;20.58;;;;;;;3.10;76.24;99988.50;5070631;28;20024;-75
2023/01/25 10:36:52;;;;;;;41.92;27.13;;;;;;;3.12;76.39;99986.41;5069987;28;20425;-73
2023/01/25 10:39:18;;;;;;;25.50;16.27;;;;;;;3.13;76.45;99977.22;5070077;28;20033;-76
2023/01/25 10:41:50;;;;;;;24.50;14.38;;;;;;;3.15;76.04;99977.00;5070060;28;20024;-74
2023/01/25 10:44:22;;;;;;;22.10;12.57;;;;;;;3.16;75.92;99969.72;5070273;28;20074;-75
2023/01/25 10:46:55;;;;;;;27.35;13.85;;;;;;;3.15;75.61;99965.34;5052004;28;20052;-75
2023/01/25 10:49:40;;;;;;;34.72;16.50;;;;;;;3.09;75.93;99959.72;5069252;28;20410;-74
2023/01/25 10:52:34;;;;;;;23.25;14.05;;;;;;;3.09;75.55;99964.28;5060988;28;20048;-73
2023/01/25 10:55:10;;;;;;;22.83;11.65;;;;;;;3.09;76.01;99953.44;5066423;28;20112;-75
2023/01/25 10:57:40;;;;;;;23.48;13.30;;;;;;;3.09;75.89;99972.41;5083043;28;20032;-74
2023/01/25 11:00:09;;;;;;;;;;;;;;;3.09;75.27;99951.59;5069587;28;20052;-72
2023/01/25 11:02:35;;;;;;;19.05;10.60;;;;;;;3.08;75.54;99951.78;5068688;28;20388;-73
2023/01/25 11:05:38;;;;;;;16.17;9.63;;;;;;;3.04;75.32;99951.38;5048890;28;20037;-73
2023/01/25 11:08:20;;;;;;;15.63;9.38;;;;;;;3.02;74.83;99942.63;5068621;28;20024;-73
2023/01/25 11:10:46;;;;;;;16.77;10.63;;;;;;;3.01;74.91;99942.84;5068856;28;20093;-72
2023/01/25 11:13:20;;;;;;;13.10;9.45;;;;;;;2.95;75.21;99929.09;5068367;28;20532;-73
2023/01/25 11:15:49;;;;;;;13.18;8.20;;;;;;;2.86;75.41;99933.03;5068510;28;20522;-72
2023/01/25 11:18:33;;;;;;;12.70;7.95;;;;;;;2.80;74.88;99933.88;5068299;28;20056;-73
2023/01/25 11:21:18;;;;;;;25.73;12.13;;;;;;;2.77;75.53;99937.00;5066573;28;20029;-72
2023/01/25 11:24:07;;;;;;;11.82;6.57;;;;;;;2.75;75.47;99926.38;5067811;28;20056;-73
2023/01/25 11:26:35;;;;;;;11.70;5.78;;;;;;;2.79;74.57;99915.94;5054812;28;20040;-73
2023/01/25 11:29:12;;;;;;;10.05;6.25;;;;;;;2.79;74.98;99919.50;5067739;28;20032;-73
2023/01/25 11:31:40;;;;;;;12.63;7.53;;;;;;;2.81;74.84;99911.16;5068226;28;20025;-73